Latest Weather Observations for Padthaway

IDS60801

Issued at 6:01 pm CDT Sunday 11 December 2016 (issued every 30 minutes, with the page automatically refreshed every 10 minutes)

About weather observations | Map of weather stations | Latest weather observations for SA | Other Formats
Station Details ID: 026100 Name: PADTHAWAY SOUTH Lat: -36.65 Lon: 140.52 Height: 37.0 m
Data from the previous 72 hours. | See also: Recent months at Padthaway
Date/Time
CDT
Temp
°C
App
Temp
°C
Dew
Point
°C
Rel
Hum
%
Delta-T
°C
Wind Press
QNH
hPa
Press
MSL
hPa
Rain since
9am
mm
Dir  Spd
km/h
Gust
km/h
Spd
kts
Gust
kts
11/06:00pm 25.5 22.6 4.6 26 10.5 SSE 9 13 5 7 - - -
11/05:30pm 25.5 22.8 3.5 24 10.8 WSW 7 13 4 7 - - 0.0
11/05:00pm 26.1 22.7 4.0 24 11.0 W 11 17 6 9 - - 0.0
11/04:30pm 25.8 23.2 4.3 25 10.8 SSE 7 15 4 8 - - 0.0
11/04:00pm 25.2 22.5 3.8 25 10.6 SSE 7 15 4 8 - - 0.0
11/03:30pm 24.9 21.9 4.1 26 10.3 SW 9 17 5 9 - - 0.0
11/03:00pm 24.1 21.5 4.0 27 9.9 SSE 7 19 4 10 - - 0.0
11/02:30pm 23.5 21.0 4.0 28 9.6 SSW 6 17 3 9 - - 0.0
11/02:00pm 23.2 20.2 4.2 29 9.3 E 9 17 5 9 - - 0.0
11/01:30pm 22.0 19.2 5.0 33 8.4 SSW 9 17 5 9 - - 0.0
11/01:00pm 21.8 18.9 4.4 32 8.5 E 9 17 5 9 - - 0.0
11/12:30pm 21.3 18.6 5.6 36 7.8 SSE 9 15 5 8 - - 0.0
11/12:00pm 20.3 17.9 5.1 37 7.5 NNW 7 11 4 6 - - 0.0
11/11:30am 19.7 17.0 5.7 40 6.9 ESE 9 20 5 11 - - 0.0
11/11:00am 19.2 17.1 6.7 44 6.3 SSW 7 15 4 8 - - 0.0
11/10:30am 17.5 14.8 5.8 46 5.7 SE 9 17 5 9 - - 0.0
11/10:00am 17.1 14.4 7.2 52 4.9 SE 11 19 6 10 - - 0.0
11/09:30am 16.6 13.8 7.0 53 4.8 ESE 11 19 6 10 - - 0.0
11/09:00am 15.7 12.3 7.7 59 4.0 ESE 15 20 8 11 - - 0.0
11/08:30am 13.8 11.1 7.3 65 3.2 SE 11 17 6 9 - - 0.0
11/08:00am 11.7 10.8 9.3 85 1.2 SSE 4 9 2 5 - - 0.0
11/07:30am 9.8 8.8 9.0 95 0.4 SSE 4 7 2 4 - - 0.0
11/07:00am 8.1 7.6 8.0 99 0.0 CALM 0 0 0 0 - - 0.0
11/06:30am 6.7 5.9 6.4 98 0.1 CALM 0 2 0 1 - - 0.0
11/06:00am 5.2 2.9 4.6 96 0.3 SE 6 7 3 4 - - 0.0
11/05:30am 5.2 2.7 4.6 96 0.3 SE 7 7 4 4 - - 0.0
11/05:00am 5.6 3.1 5.0 96 0.3 SE 7 9 4 5 - - 0.0
11/04:30am 5.6 2.7 4.9 95 0.3 SE 9 9 5 5 - - 0.0
11/04:00am 6.3 5.3 5.7 96 0.3 CALM 0 6 0 3 - - 0.0
11/03:30am 6.6 4.3 5.9 95 0.3 SE 7 9 4 5 - - 0.0
11/03:00am 7.0 5.4 6.3 95 0.3 SE 4 9 2 5 - - 0.0
11/02:30am 7.4 4.9 6.5 94 0.4 SSE 9 11 5 6 - - 0.0
11/02:00am 7.6 5.5 6.7 94 0.4 SSE 7 7 4 4 - - 0.0
11/01:30am 8.4 6.5 7.5 94 0.4 SSE 7 9 4 5 - - 0.0
11/01:00am 8.7 6.1 7.6 93 0.5 SE 11 11 6 6 - - 0.0
11/12:30am 9.0 6.8 7.8 92 0.6 SSE 9 11 5 6 - - 0.0
11/12:00am 9.4 7.2 7.8 90 0.8 SSE 9 11 5 6 - - 0.0
 
Date/Time
CDT
Temp
°C
App
Temp
°C
Dew
Point
°C
Rel
Hum
%
Delta-T
°C
Wind Press
QNH
hPa
Press
MSL
hPa
Rain since
9am
mm
Dir  Spd
km/h
Gust
km/h
Spd
kts
Gust
kts
10/11:30pm 10.4 8.8 8.2 86 1.1 SSE 6 9 3 5 - - 0.0
10/11:00pm 11.6 9.2 8.6 82 1.5 S 11 15 6 8 - - 0.0
10/10:30pm 11.9 9.5 8.7 81 1.6 S 11 13 6 7 - - 0.0
10/10:00pm 12.5 10.2 9.0 79 1.8 SSE 11 15 6 8 - - 0.0
10/09:30pm 13.3 11.0 9.0 75 2.2 SSE 11 17 6 9 - - 0.0
10/09:00pm 13.9 11.1 8.7 71 2.6 SSE 13 19 7 10 - - 0.0
10/08:30pm 15.0 12.3 8.9 67 3.1 SSE 13 20 7 11 - - 0.0
10/08:00pm 16.2 13.4 8.4 60 4.0 S 13 20 7 11 - - 0.0
10/07:30pm 17.2 13.7 8.6 57 4.4 S 17 28 9 15 - - 0.0
10/07:00pm 18.1 14.2 8.7 54 4.9 S 19 26 10 14 - - 0.0
10/06:30pm 18.9 15.4 8.8 52 5.3 S 17 24 9 13 - - 0.0
10/06:00pm 19.7 16.3 9.3 51 5.5 S 17 28 9 15 - - 0.0
10/05:30pm 20.0 16.8 9.9 52 5.4 SSW 17 28 9 15 - - 0.0
10/05:00pm 19.9 15.2 9.2 50 5.7 S 24 35 13 19 - - 0.0
10/04:30pm 20.7 16.2 8.7 46 6.3 S 22 30 12 16 - - 0.0
10/04:00pm 21.1 16.9 8.4 44 6.7 S 20 28 11 15 - - 0.0
10/03:30pm 21.4 17.7 8.0 42 7.0 SSW 17 30 9 16 - - 0.0
10/03:00pm 22.2 19.2 7.6 39 7.6 SSW 13 24 7 13 - - 0.0
10/02:30pm 21.2 18.4 7.1 40 7.2 S 11 20 6 11 - - 0.0
10/02:00pm 20.7 17.7 7.7 43 6.7 SSW 13 30 7 16 - - 0.0
10/01:30pm 20.7 17.4 8.0 44 6.6 SSE 15 24 8 13 - - 0.0
10/01:00pm 19.9 17.8 6.6 42 6.7 WSW 7 17 4 9 - - 0.0
10/12:30pm 19.6 17.4 6.4 42 6.6 W 7 17 4 9 - - 0.0
10/12:00pm 18.6 16.9 5.8 43 6.3 NW 4 9 2 5 - - 0.0
10/11:30am 17.8 15.1 5.7 45 5.9 WNW 9 17 5 9 - - 0.0
10/11:00am 17.5 15.4 6.7 49 5.4 WNW 7 17 4 9 - - 0.0
10/10:30am 16.2 14.9 5.8 50 5.0 SSW 2 11 1 6 - - 0.0
10/10:00am 16.3 14.7 6.2 51 4.9 SSE 4 11 2 6 - - 0.0
10/09:30am 15.7 13.9 5.6 51 4.8 NE 4 9 2 5 - - 0.0
10/09:00am 15.0 13.5 6.6 57 4.1 SSW 4 11 2 6 - - 0.0
10/08:30am 13.4 11.3 5.8 60 3.6 S 6 11 3 6 - - 0.0
10/08:00am 13.2 12.4 6.5 64 3.2 CALM 0 4 0 2 - - 0.0
10/07:30am 11.0 10.2 6.4 73 2.2 CALM 0 0 0 0 - - 0.0
10/07:00am 8.3 7.6 6.8 90 0.7 CALM 0 0 0 0 - - 0.0
10/06:30am 6.1 5.0 5.1 93 0.4 CALM 0 0 0 0 - - 0.0
10/06:00am 4.7 3.3 3.8 94 0.4 CALM 0 0 0 0 - - 0.0
10/05:30am 4.7 3.3 3.7 93 0.4 CALM 0 0 0 0 - - 0.0
10/05:00am 5.0 3.7 4.0 93 0.4 CALM 0 0 0 0 - - 0.0
10/04:30am 5.3 4.0 4.1 92 0.5 CALM 0 0 0 0 - - 0.0
10/04:00am 5.7 4.4 4.3 91 0.6 CALM 0 0 0 0 - - 0.0
10/03:30am 6.2 5.0 4.5 89 0.7 CALM 0 0 0 0 - - 0.0
10/03:00am 7.0 5.9 5.2 88 0.8 CALM 0 0 0 0 - - 0.0
10/02:30am 8.1 7.1 5.6 84 1.1 CALM 0 0 0 0 - - 0.0
10/02:00am 9.5 7.4 6.6 82 1.4 S 7 11 4 6 - - 0.0
10/01:30am 10.6 8.3 7.5 81 1.5 SSW 9 13 5 7 - - 0.0
10/01:00am 11.5 9.7 7.8 78 1.8 SSW 7 11 4 6 - - 0.0
10/12:30am 11.2 10.4 8.2 82 1.5 S 2 9 1 5 - - 0.0
10/12:00am 10.8 9.6 8.2 84 1.3 SSE 4 9 2 5 - - 0.0
 
Date/Time
CDT
Temp
°C
App
Temp
°C
Dew
Point
°C
Rel
Hum
%
Delta-T
°C
Wind Press
QNH
hPa
Press
MSL
hPa
Rain since
9am
mm
Dir  Spd
km/h
Gust
km/h
Spd
kts
Gust
kts
09/11:30pm 10.2 8.3 7.4 83 1.3 SSW 7 11 4 6 - - 0.0
09/11:00pm 9.6 7.7 6.7 82 1.4 S 6 13 3 7 - - 0.0
09/10:30pm 9.8 7.6 6.2 78 1.7 SSW 7 11 4 6 - - 0.0
09/10:00pm 10.6 7.7 6.4 75 2.0 SSW 11 15 6 8 - - 0.0
09/09:30pm 10.4 7.8 6.2 75 2.0 S 9 13 5 7 - - 0.0
09/09:00pm 11.1 8.5 6.3 72 2.3 S 9 13 5 7 - - 0.0
09/08:30pm 11.9 9.3 6.2 68 2.7 S 9 11 5 6 - - 0.0
09/08:00pm 13.0 10.4 5.9 62 3.4 SSW 9 13 5 7 - - 0.0
09/07:30pm 14.1 10.2 5.5 56 4.1 SSW 15 22 8 12 - - 0.0
09/07:00pm 15.9 11.2 5.2 49 5.1 S 19 28 10 15 - - 0.0
09/06:30pm 15.8 12.0 5.7 51 4.9 SSW 15 24 8 13 - - 0.0
09/06:00pm 15.5 10.9 5.7 52 4.7 SSW 19 26 10 14 - - 0.0
09/05:30pm 16.1 11.5 6.3 52 4.8 S 20 30 11 16 - - 0.0
09/05:00pm 17.0 12.3 6.2 49 5.3 SSW 20 33 11 18 - - 0.0
09/04:30pm 17.6 12.9 5.2 44 6.0 SW 19 32 10 17 - - 0.0
09/04:00pm 16.8 12.2 5.7 48 5.4 SSW 19 30 10 16 - - 0.0
09/03:30pm 17.8 12.9 7.0 49 5.4 SSW 22 33 12 18 - - 0.0
09/03:00pm 17.5 12.4 6.1 47 5.6 SSW 22 33 12 18 - - 0.0
09/02:30pm 17.8 13.0 5.7 45 5.9 S 20 33 11 18 - - 0.0
09/02:00pm 18.4 13.6 4.9 41 6.5 SSW 19 28 10 15 - - 0.0
09/01:30pm 18.2 13.7 4.0 39 6.7 SSW 17 32 9 17 - - 0.0
09/01:00pm 17.2 12.8 4.5 43 6.0 SSW 17 35 9 19 - - 0.0
09/12:30pm 16.8 12.7 4.5 44 5.8 SW 15 26 8 14 - - 0.0
09/12:00pm 16.0 11.3 5.3 49 5.1 SSW 19 32 10 17 - - 0.0
09/11:30am 15.3 10.7 5.5 52 4.7 SSW 19 30 10 16 - - 0.0
09/11:00am 15.4 10.4 4.5 48 5.1 SW 20 33 11 18 - - 0.0
09/10:30am 15.2 10.2 3.7 46 5.3 SW 19 32 10 17 - - 0.0
09/10:00am 15.0 9.9 4.1 48 5.0 SSW 20 35 11 19 - - 0.0
09/09:30am 14.3 9.2 4.0 50 4.7 SSW 20 30 11 16 - - 0.0
09/09:00am 14.2 10.6 5.0 54 4.3 SSW 13 22 7 12 - - 2.0
09/08:30am 12.7 8.4 5.4 61 3.4 SSW 17 24 9 13 - - 2.0
09/08:00am 12.2 7.7 4.2 58 3.6 SW 17 24 9 13 - - 2.0
09/07:30am 12.2 8.9 4.7 60 3.4 SW 11 17 6 9 - - 2.0
09/07:00am 10.0 8.7 5.8 75 1.9 WSW 2 7 1 4 - - 2.0
09/06:30am 8.0 7.1 6.0 87 0.9 CALM 0 0 0 0 - - 2.0
09/06:00am 8.5 7.2 6.1 85 1.1 SW 2 7 1 4 - - 2.0
09/05:30am 8.6 7.8 6.7 88 0.9 CALM 0 7 0 4 - - 2.0
09/05:00am 8.1 5.5 6.2 88 0.9 WSW 9 11 5 6 - - 2.0
09/04:30am 8.8 6.9 6.8 87 0.9 WSW 6 7 3 4 - - 2.0
09/04:00am 8.7 7.2 6.8 88 0.9 SSW 4 7 2 4 - - 2.0
09/03:30am 9.0 7.5 6.6 85 1.1 SW 4 7 2 4 - - 2.0
09/03:00am 10.1 7.7 7.2 82 1.4 SW 9 13 5 7 - - 2.0
09/02:30am 10.2 7.5 7.3 82 1.4 SW 11 19 6 10 - - 2.0
09/02:00am 10.1 7.4 7.2 82 1.4 SW 11 15 6 8 - - 2.0
09/01:30am 9.7 6.9 6.8 82 1.4 WSW 11 17 6 9 - - 2.0
09/01:00am 9.7 7.2 6.4 80 1.5 WSW 9 15 5 8 - - 2.0
09/12:30am 10.0 7.2 6.9 81 1.5 WSW 11 15 6 8 - - 2.0
09/12:00am 8.9 6.8 5.8 81 1.4 SW 6 9 3 5 - - 2.0
 
Date/Time
CDT
Temp
°C
App
Temp
°C
Dew
Point
°C
Rel
Hum
%
Delta-T
°C
Wind Press
QNH
hPa
Press
MSL
hPa
Rain since
9am
mm
Dir  Spd
km/h
Gust
km/h
Spd
kts
Gust
kts
08/11:30pm 10.0 7.0 5.8 75 1.9 SW 11 17 6 9 - - 2.0
08/11:00pm 10.8 7.8 6.0 72 2.2 SW 11 17 6 9 - - 2.0
08/10:30pm 10.3 7.4 6.3 76 1.9 SW 11 15 6 8 - - 2.0
08/10:00pm 11.2 7.1 6.3 72 2.3 SW 17 24 9 13 - - 2.0
08/09:30pm 11.0 7.4 6.7 75 2.0 WSW 15 22 8 12 - - 2.0
08/09:00pm 12.2 7.8 6.5 68 2.7 SW 19 28 10 15 - - 2.0
08/08:30pm 12.3 7.6 6.1 66 2.9 SW 20 39 11 21 - - 2.0
08/08:00pm 13.0 8.3 6.1 63 3.3 SW 20 28 11 15 - - 2.0
08/07:30pm 13.5 7.4 6.4 62 3.4 SW 28 44 15 24 - - 2.0
08/07:00pm 13.8 9.8 9.0 73 2.4 SW 20 35 11 19 - - 2.0
08/06:34pm 14.1 8.1 7.2 63 3.4 SW 28 46 15 25 - - 1.6
08/06:30pm 14.7 9.2 7.5 62 3.6 SW 26 43 14 23 - - 1.6

Other Formats:

Comma delimited format used in spreadsheet applications
http://www.bom.gov.au/fwo/IDS60801/IDS60801.95823.axf

JavaScript Object Notation format (JSON) in row-major order
http://www.bom.gov.au/fwo/IDS60801/IDS60801.95823.json